createdAt,value
2017-12-10T00:01:45.179Z,2.72
2017-12-10T00:04:12.782Z,2.83
2017-12-10T00:06:40.396Z,2.93
2017-12-10T00:09:08.025Z,2.94
2017-12-10T00:11:35.788Z,2.75
2017-12-10T00:14:03.602Z,2.98
2017-12-10T00:16:32.002Z,2.95
2017-12-10T00:18:59.585Z,2.98
2017-12-10T00:21:27.194Z,2.99
2017-12-10T00:23:55.006Z,2.95
2017-12-10T00:26:22.820Z,3.11
2017-12-10T00:28:50.620Z,3.01
2017-12-10T00:31:18.206Z,2.82
2017-12-10T00:33:45.965Z,2.94
2017-12-10T00:36:13.772Z,2.75
2017-12-10T00:38:41.393Z,2.98
2017-12-10T00:41:10.094Z,3.38
2017-12-10T00:43:37.684Z,3.11
2017-12-10T00:46:05.313Z,3.14
2017-12-10T00:48:33.793Z,3.11
2017-12-10T00:51:02.181Z,3.20
2017-12-10T00:53:29.780Z,3.19
2017-12-10T00:55:57.309Z,3.16
2017-12-10T00:58:25.073Z,3.24
2017-12-10T01:00:52.682Z,3.11
2017-12-10T01:03:20.504Z,3.02
2017-12-10T01:05:48.354Z,3.07
2017-12-10T01:08:16.176Z,3.11
2017-12-10T01:10:43.733Z,3.20
2017-12-10T01:13:11.275Z,3.03
2017-12-10T01:15:38.863Z,3.04
2017-12-10T01:18:06.505Z,2.90
2017-12-10T01:20:34.355Z,3.06
2017-12-10T01:23:01.951Z,3.03
2017-12-10T01:25:29.585Z,3.14
2017-12-10T01:27:57.380Z,3.09
2017-12-10T01:30:25.018Z,3.16
2017-12-10T01:32:52.669Z,3.23
2017-12-10T01:35:20.256Z,2.84
2017-12-10T01:37:47.819Z,3.19
2017-12-10T01:40:15.355Z,3.09
2017-12-10T01:42:42.893Z,3.01
2017-12-10T01:45:11.196Z,3.24
2017-12-10T01:47:38.794Z,3.15
2017-12-10T01:50:06.717Z,3.25
2017-12-10T01:52:34.315Z,3.23
2017-12-10T01:55:02.085Z,3.07
2017-12-10T01:57:29.654Z,3.15
2017-12-10T01:59:57.277Z,3.03
2017-12-10T02:02:25.075Z,2.77
2017-12-10T02:04:52.654Z,2.84
2017-12-10T02:07:20.442Z,2.92
2017-12-10T02:09:48.299Z,2.82
2017-12-10T02:12:15.903Z,2.70
2017-12-10T02:14:43.437Z,2.81
2017-12-10T02:17:11.005Z,2.72
2017-12-10T02:19:38.778Z,2.65
2017-12-10T02:22:06.569Z,2.51
2017-12-10T02:24:34.137Z,2.49
2017-12-10T02:27:01.934Z,2.56
2017-12-10T02:29:29.732Z,2.49
2017-12-10T02:31:57.342Z,2.56
2017-12-10T02:34:25.107Z,2.61
2017-12-10T02:36:52.956Z,2.55
2017-12-10T02:39:21.504Z,2.51
2017-12-10T02:41:49.263Z,2.27
2017-12-10T02:44:17.018Z,2.26
2017-12-10T02:46:44.620Z,2.08
2017-12-10T02:49:12.160Z,1.88
2017-12-10T02:51:39.737Z,1.98
2017-12-10T02:54:07.317Z,1.91
2017-12-10T02:56:35.106Z,2.15
2017-12-10T02:59:02.870Z,2.02
2017-12-10T03:01:31.216Z,2.14
2017-12-10T03:03:58.811Z,2.13
2017-12-10T03:06:26.819Z,2.08
2017-12-10T03:08:54.602Z,2.20
2017-12-10T03:11:22.363Z,2.25
2017-12-10T03:13:49.921Z,2.27
2017-12-10T03:16:17.490Z,2.17
2017-12-10T03:18:45.980Z,2.21
2017-12-10T03:21:13.745Z,2.18
2017-12-10T03:23:41.365Z,2.14
2017-12-10T03:26:09.189Z,2.27
2017-12-10T03:28:36.961Z,2.29
2017-12-10T03:31:04.806Z,2.34
2017-12-10T03:33:32.356Z,2.18
2017-12-10T03:36:01.064Z,2.14
2017-12-10T03:38:29.273Z,2.12
2017-12-10T03:40:57.043Z,2.01
2017-12-10T03:43:24.595Z,2.11
2017-12-10T03:45:52.430Z,2.11
2017-12-10T03:48:20.212Z,1.92
2017-12-10T03:50:47.781Z,2.11
2017-12-10T03:53:16.328Z,2.11
2017-12-10T03:55:43.880Z,2.10
2017-12-10T03:58:11.666Z,2.22
2017-12-10T04:00:39.289Z,2.13
2017-12-10T04:03:07.079Z,2.37
2017-12-10T04:05:34.715Z,2.24
2017-12-10T04:08:02.351Z,2.36
2017-12-10T04:10:29.923Z,2.39
2017-12-10T04:12:57.738Z,2.28
2017-12-10T04:15:25.383Z,2.40
2017-12-10T04:17:53.158Z,2.35
2017-12-10T04:20:20.917Z,2.31
2017-12-10T04:22:49.380Z,2.32
2017-12-10T04:25:17.136Z,2.29
2017-12-10T04:27:44.666Z,2.04
2017-12-10T04:30:12.394Z,2.24
2017-12-10T04:32:39.975Z,2.22
2017-12-10T04:35:07.541Z,2.28
2017-12-10T04:40:04.159Z,2.01
2017-12-10T04:42:34.912Z,2.00
2017-12-10T04:45:02.585Z,1.93
2017-12-10T04:47:30.192Z,1.86
2017-12-10T04:49:57.816Z,1.73
2017-12-10T04:52:25.603Z,1.73
2017-12-10T04:54:53.219Z,1.71
2017-12-10T04:57:20.842Z,1.69
2017-12-10T04:59:48.658Z,1.59
2017-12-10T05:02:16.361Z,1.58
2017-12-10T05:04:43.917Z,1.49
2017-12-10T05:07:11.676Z,1.67
2017-12-10T05:09:39.318Z,1.46
2017-12-10T05:12:06.918Z,1.57
2017-12-10T05:14:34.485Z,1.43
2017-12-10T05:17:02.114Z,1.40
2017-12-10T05:19:29.869Z,1.52
2017-12-10T05:21:57.394Z,1.48
2017-12-10T05:24:25.163Z,1.45
2017-12-10T05:26:52.925Z,1.44
2017-12-10T05:29:20.745Z,1.49
2017-12-10T05:31:48.492Z,1.50
2017-12-10T05:34:16.908Z,1.46
2017-12-10T05:36:44.965Z,1.54
2017-12-10T05:39:12.564Z,1.73
2017-12-10T05:41:40.150Z,1.77
2017-12-10T05:44:08.115Z,1.74
2017-12-10T05:46:35.758Z,1.61
2017-12-10T05:49:03.649Z,1.59
2017-12-10T05:51:31.870Z,1.63
2017-12-10T05:53:59.685Z,1.61
2017-12-10T05:56:28.006Z,1.78
2017-12-10T05:58:56.321Z,1.73
2017-12-10T06:01:24.014Z,1.57
2017-12-10T06:03:51.611Z,1.65
2017-12-10T06:06:19.394Z,1.69
2017-12-10T06:08:47.015Z,1.85
2017-12-10T06:11:14.617Z,1.93
2017-12-10T06:13:42.219Z,1.91
2017-12-10T06:16:09.976Z,2.05
2017-12-10T06:18:37.740Z,2.07
2017-12-10T06:21:05.433Z,2.17
2017-12-10T06:23:33.029Z,2.37
2017-12-10T06:26:00.580Z,2.37
2017-12-10T06:28:28.376Z,2.32
2017-12-10T06:30:55.970Z,2.40
2017-12-10T06:33:23.574Z,2.34
2017-12-10T06:35:51.167Z,2.34
2017-12-10T06:38:18.898Z,2.30
2017-12-10T06:40:46.495Z,2.52
2017-12-10T06:43:14.269Z,2.26
2017-12-10T06:45:42.073Z,2.39
2017-12-10T06:48:09.846Z,2.52
2017-12-10T06:50:37.473Z,2.40
2017-12-10T06:53:05.057Z,2.26
2017-12-10T06:55:32.674Z,2.39
2017-12-10T06:58:00.242Z,2.18
2017-12-10T07:00:27.868Z,2.00
2017-12-10T07:02:56.521Z,2.16
2017-12-10T07:05:24.595Z,2.37
2017-12-10T07:07:52.215Z,2.25
2017-12-10T07:10:19.784Z,2.29
2017-12-10T07:12:47.351Z,2.29
2017-12-10T07:15:14.944Z,2.38
2017-12-10T07:17:42.729Z,2.38
2017-12-10T07:20:10.537Z,2.50
2017-12-10T07:22:38.150Z,2.65
2017-12-10T07:25:06.510Z,3.60
2017-12-10T07:27:34.370Z,4.53
2017-12-10T07:30:04.885Z,4.72
2017-12-10T07:32:35.317Z,5.09
2017-12-10T07:35:03.090Z,5.46
2017-12-10T07:37:30.685Z,5.31
2017-12-10T07:39:58.454Z,4.78
2017-12-10T07:42:26.264Z,4.83
2017-12-10T07:44:53.834Z,4.31
2017-12-10T07:47:22.046Z,4.42
2017-12-10T07:49:49.793Z,4.53
2017-12-10T07:52:17.385Z,4.32
2017-12-10T07:54:44.933Z,4.47
2017-12-10T07:57:12.550Z,4.33
2017-12-10T07:59:40.235Z,3.76
2017-12-10T08:02:07.965Z,3.71
2017-12-10T08:04:35.568Z,3.85
2017-12-10T08:07:03.359Z,3.62
2017-12-10T08:09:31.002Z,3.84
2017-12-10T08:11:58.789Z,3.82
2017-12-10T08:14:26.385Z,3.72
2017-12-10T08:16:54.060Z,3.70
2017-12-10T08:19:21.850Z,3.81
2017-12-10T08:21:49.460Z,4.05
2017-12-10T08:24:17.050Z,4.27
2017-12-10T08:26:44.657Z,4.50
2017-12-10T08:29:12.454Z,4.45
2017-12-10T08:31:40.066Z,4.41
2017-12-10T08:34:07.884Z,4.53
2017-12-10T08:36:35.510Z,4.70
2017-12-10T08:39:03.547Z,4.58
2017-12-10T08:41:31.188Z,4.68
2017-12-10T08:43:58.803Z,4.79
2017-12-10T08:46:26.434Z,4.68
2017-12-10T08:48:54.146Z,4.65
2017-12-10T08:51:21.760Z,4.51
2017-12-10T08:53:49.424Z,4.44
2017-12-10T08:56:17.070Z,4.57
2017-12-10T08:58:44.705Z,4.56
2017-12-10T09:01:12.417Z,4.51
2017-12-10T09:03:41.180Z,4.53
2017-12-10T09:06:09.832Z,4.29
2017-12-10T09:08:38.142Z,3.85
2017-12-10T09:11:06.707Z,4.07
2017-12-10T09:13:35.009Z,3.62
2017-12-10T09:16:03.123Z,4.08
2017-12-10T09:18:30.878Z,4.24
2017-12-10T09:20:58.611Z,4.08
2017-12-10T09:23:26.751Z,4.34
2017-12-10T09:25:54.544Z,5.36
2017-12-10T09:28:22.065Z,4.88
2017-12-10T09:30:49.633Z,4.80
2017-12-10T09:33:17.248Z,4.58
2017-12-10T09:35:44.815Z,4.50
2017-12-10T09:38:12.573Z,5.79
2017-12-10T09:40:40.144Z,6.44
2017-12-10T09:43:07.731Z,7.46
2017-12-10T09:45:35.336Z,7.35
2017-12-10T09:48:02.938Z,8.28
2017-12-10T09:50:30.556Z,8.82
2017-12-10T09:52:58.120Z,8.90
2017-12-10T09:55:25.681Z,8.65
2017-12-10T09:57:53.355Z,9.00
2017-12-10T10:00:20.982Z,9.25
2017-12-10T10:02:48.541Z,10.04
2017-12-10T10:05:16.107Z,9.60
2017-12-10T10:07:44.442Z,10.55
2017-12-10T10:10:12.252Z,10.22
2017-12-10T10:12:40.060Z,10.91
2017-12-10T10:15:07.748Z,10.72
2017-12-10T10:17:35.560Z,10.61
2017-12-10T10:20:03.147Z,10.33
2017-12-10T10:22:31.143Z,10.02
2017-12-10T10:24:58.815Z,9.78
2017-12-10T10:27:26.603Z,9.26
2017-12-10T10:29:54.260Z,8.51
2017-12-10T10:32:22.602Z,7.77
2017-12-10T10:34:50.250Z,7.47
2017-12-10T10:37:18.084Z,7.08
2017-12-10T10:39:45.756Z,6.58
2017-12-10T10:42:14.129Z,6.80
2017-12-10T10:44:42.552Z,7.33
2017-12-10T10:47:10.293Z,7.63
2017-12-10T10:49:38.199Z,7.39
2017-12-10T10:52:05.789Z,7.32
2017-12-10T10:54:34.120Z,7.45
2017-12-10T10:57:02.527Z,7.56
2017-12-10T10:59:30.148Z,7.79
2017-12-10T11:01:57.766Z,7.50
2017-12-10T11:04:25.470Z,7.41
2017-12-10T11:06:53.235Z,7.29
2017-12-10T11:09:20.901Z,7.04
2017-12-10T11:11:48.678Z,7.23
2017-12-10T11:14:16.526Z,6.94
2017-12-10T11:16:45.145Z,6.96
2017-12-10T11:19:14.049Z,7.01
2017-12-10T11:21:41.631Z,6.94
2017-12-10T11:24:09.454Z,6.86
2017-12-10T11:26:37.012Z,7.09
2017-12-10T11:29:04.622Z,7.57
2017-12-10T11:31:32.249Z,7.62
2017-12-10T11:34:00.069Z,7.54
2017-12-10T11:36:27.864Z,7.83
2017-12-10T11:38:55.725Z,8.21
2017-12-10T11:41:24.938Z,8.09
2017-12-10T11:43:56.710Z,8.58
2017-12-10T11:46:27.061Z,8.27
2017-12-10T11:48:56.003Z,8.63
2017-12-10T11:51:26.468Z,8.55
2017-12-10T11:53:58.586Z,8.63
2017-12-10T11:56:26.493Z,8.49
2017-12-10T11:58:54.316Z,8.57
2017-12-10T12:01:21.906Z,8.41
2017-12-10T12:03:50.415Z,8.35
2017-12-10T12:06:18.118Z,8.40
2017-12-10T12:08:45.744Z,8.86
2017-12-10T12:11:13.355Z,9.14
2017-12-10T12:13:41.188Z,9.14
2017-12-10T12:16:09.381Z,8.78
2017-12-10T12:18:37.151Z,8.88
2017-12-10T12:21:04.737Z,8.47
2017-12-10T12:23:32.374Z,7.73
2017-12-10T12:26:00.510Z,8.09
2017-12-10T12:28:28.749Z,8.08
2017-12-10T12:30:56.421Z,8.16
2017-12-10T12:33:23.955Z,8.31
2017-12-10T12:35:51.547Z,8.33
2017-12-10T12:38:19.189Z,8.38
2017-12-10T12:40:46.847Z,8.50
2017-12-10T12:43:14.647Z,8.11
2017-12-10T12:45:42.316Z,8.47
2017-12-10T12:48:09.872Z,8.87
2017-12-10T12:50:37.484Z,8.69
2017-12-10T12:53:05.084Z,8.52
2017-12-10T12:55:32.652Z,8.46
2017-12-10T12:58:00.326Z,8.34
2017-12-10T13:00:27.913Z,8.55
2017-12-10T13:02:55.532Z,8.20
2017-12-10T13:05:23.345Z,8.58
2017-12-10T13:07:51.613Z,8.44
2017-12-10T13:10:19.206Z,8.35
2017-12-10T13:12:46.792Z,8.67
2017-12-10T13:15:14.384Z,8.71
2017-12-10T13:17:42.178Z,8.47
2017-12-10T13:20:09.744Z,8.70
2017-12-10T13:22:37.335Z,8.83
2017-12-10T13:25:04.975Z,8.83
2017-12-10T13:27:32.578Z,8.58
2017-12-10T13:30:00.614Z,8.13
2017-12-10T13:32:28.439Z,7.94
2017-12-10T13:34:56.315Z,7.85
2017-12-10T13:37:24.130Z,7.94
2017-12-10T13:39:51.797Z,7.89
2017-12-10T13:42:20.706Z,7.78
2017-12-10T13:44:48.634Z,7.88
2017-12-10T13:47:16.872Z,7.81
2017-12-10T13:49:44.749Z,7.41
2017-12-10T13:52:12.736Z,7.91
2017-12-10T13:54:40.312Z,7.39
2017-12-10T13:57:07.986Z,7.24
2017-12-10T13:59:35.815Z,6.98
2017-12-10T14:02:03.501Z,7.21
2017-12-10T14:04:31.241Z,7.10
2017-12-10T14:06:58.816Z,7.38
2017-12-10T14:09:26.649Z,7.64
2017-12-10T14:11:55.135Z,7.28
2017-12-10T14:14:22.814Z,6.83
2017-12-10T14:16:50.505Z,7.09
2017-12-10T14:19:18.061Z,6.57
2017-12-10T14:21:45.910Z,6.60
2017-12-10T14:24:13.491Z,6.36
2017-12-10T14:26:41.052Z,6.17
2017-12-10T14:29:09.452Z,5.85
2017-12-10T14:31:37.083Z,6.01
2017-12-10T14:34:04.711Z,5.90
2017-12-10T14:36:32.494Z,5.72
2017-12-10T14:39:00.320Z,5.70
2017-12-10T14:41:28.891Z,5.38
2017-12-10T14:43:56.734Z,5.69
2017-12-10T14:46:25.269Z,5.46
2017-12-10T14:48:52.917Z,5.34
2017-12-10T14:51:20.521Z,5.54
2017-12-10T14:53:48.133Z,5.71
2017-12-10T14:56:15.856Z,5.39
2017-12-10T14:58:44.309Z,5.43
2017-12-10T15:01:12.085Z,4.86
2017-12-10T15:03:40.013Z,4.56
2017-12-10T15:06:11.343Z,4.29
2017-12-10T15:08:38.921Z,4.41
2017-12-10T15:11:07.793Z,4.59
2017-12-10T15:13:35.549Z,4.33
2017-12-10T15:16:04.446Z,4.47
2017-12-10T15:18:33.084Z,4.46
2017-12-10T15:21:00.867Z,4.47
2017-12-10T15:23:28.789Z,4.38
2017-12-10T15:25:57.455Z,4.15
2017-12-10T15:28:25.697Z,4.19
2017-12-10T15:30:53.310Z,3.78
2017-12-10T15:33:21.642Z,4.17
2017-12-10T15:35:49.370Z,4.04
2017-12-10T15:38:16.965Z,3.15
2017-12-10T15:40:44.693Z,2.97
2017-12-10T15:43:13.326Z,3.31
2017-12-10T15:45:42.290Z,3.91
2017-12-10T15:48:10.032Z,3.68
2017-12-10T15:50:37.694Z,3.87
2017-12-10T15:53:05.826Z,3.64
2017-12-10T15:55:34.312Z,2.69
2017-12-10T15:58:02.370Z,2.80
2017-12-10T16:00:30.555Z,2.13
2017-12-10T16:03:00.841Z,2.61
2017-12-10T16:05:28.775Z,3.14
2017-12-10T16:07:57.349Z,3.41
2017-12-10T16:10:25.669Z,3.24
2017-12-10T16:12:53.712Z,3.43
2017-12-10T16:15:24.238Z,3.25
2017-12-10T16:17:54.679Z,3.46
2017-12-10T16:20:24.126Z,3.53
2017-12-10T16:22:52.791Z,3.78
2017-12-10T16:25:22.216Z,3.39
2017-12-10T16:27:50.927Z,3.26
2017-12-10T16:30:20.424Z,3.37
2017-12-10T16:32:48.085Z,3.04
2017-12-10T16:35:15.936Z,3.05
2017-12-10T16:37:43.634Z,3.16
2017-12-10T16:40:11.643Z,2.91
2017-12-10T16:42:39.219Z,3.28
2017-12-10T16:45:06.939Z,3.14
2017-12-10T16:47:34.545Z,3.08
2017-12-10T16:50:02.331Z,2.78
2017-12-10T16:52:29.941Z,2.71
2017-12-10T16:54:57.929Z,3.10
2017-12-10T16:57:25.520Z,2.92
2017-12-10T16:59:53.159Z,3.31
2017-12-10T17:02:21.031Z,3.55
2017-12-10T17:04:53.345Z,3.69
2017-12-10T17:07:20.959Z,3.24
2017-12-10T17:09:49.214Z,3.26
2017-12-10T17:12:16.818Z,3.38
2017-12-10T17:14:44.423Z,3.51
2017-12-10T17:17:12.586Z,3.23
2017-12-10T17:19:40.148Z,3.29
2017-12-10T17:22:07.794Z,3.16
2017-12-10T17:24:37.028Z,2.38
2017-12-10T17:27:04.634Z,1.70
2017-12-10T17:29:32.538Z,2.11
2017-12-10T17:32:00.250Z,1.10
2017-12-10T17:34:28.100Z,1.63
2017-12-10T17:36:57.226Z,1.69
2017-12-10T17:39:25.707Z,1.56
2017-12-10T17:41:53.385Z,0.97
2017-12-10T17:44:22.095Z,1.01
2017-12-10T17:46:50.524Z,1.76
2017-12-10T17:49:18.606Z,1.23
2017-12-10T17:51:46.482Z,0.89
2017-12-10T17:54:15.147Z,0.60
2017-12-10T17:56:44.091Z,0.78
2017-12-10T17:59:13.442Z,0.48
2017-12-10T18:01:42.235Z,0.62
2017-12-10T18:04:10.158Z,0.75
2017-12-10T18:06:37.757Z,0.55
2017-12-10T18:09:05.385Z,0.32
2017-12-10T18:11:33.582Z,0.48
2017-12-10T18:14:01.347Z,-0.18
2017-12-10T18:16:29.018Z,-0.47
2017-12-10T18:18:56.876Z,-0.59
2017-12-10T18:21:24.434Z,-0.05
2017-12-10T18:23:52.158Z,-0.23
2017-12-10T18:26:20.026Z,-0.46
2017-12-10T18:28:47.648Z,-0.20
2017-12-10T18:31:15.266Z,-0.07
2017-12-10T18:33:43.090Z,-0.21
2017-12-10T18:36:10.686Z,-0.34
2017-12-10T18:38:38.678Z,-0.67
2017-12-10T18:41:06.303Z,-0.44
2017-12-10T18:43:33.906Z,-0.84
2017-12-10T18:46:01.491Z,-0.59
2017-12-10T18:48:29.065Z,-0.26
2017-12-10T18:50:57.254Z,-0.69
2017-12-10T18:53:24.974Z,-1.00
2017-12-10T18:55:52.586Z,-0.96
2017-12-10T18:58:20.611Z,-0.86
2017-12-10T19:00:48.460Z,-0.67
2017-12-10T19:03:16.524Z,-0.67
2017-12-10T19:05:44.165Z,-1.09
2017-12-10T19:08:11.908Z,-0.55
2017-12-10T19:10:39.634Z,-0.77
2017-12-10T19:13:08.038Z,-0.33
2017-12-10T19:15:35.825Z,0.09
2017-12-10T19:18:03.430Z,0.23
2017-12-10T19:20:31.769Z,0.17
2017-12-10T19:22:59.418Z,0.17
2017-12-10T19:25:27.256Z,0.41
2017-12-10T19:27:54.840Z,0.15
2017-12-10T19:30:22.718Z,0.62
2017-12-10T19:32:50.516Z,0.45
2017-12-10T19:35:18.496Z,0.32
2017-12-10T19:37:47.312Z,0.68
2017-12-10T19:40:15.506Z,0.58
2017-12-10T19:42:45.243Z,0.76
2017-12-10T19:45:13.684Z,0.64
2017-12-10T19:47:41.555Z,0.66
2017-12-10T19:50:09.344Z,0.92
2017-12-10T19:52:36.958Z,0.47
2017-12-10T19:55:04.596Z,0.42
2017-12-10T19:57:32.270Z,0.42
2017-12-10T20:00:00.062Z,1.00
2017-12-10T20:02:27.701Z,1.21
2017-12-10T20:04:55.494Z,0.22
2017-12-10T20:07:23.997Z,-0.31
2017-12-10T20:09:51.778Z,0.12
2017-12-10T20:12:19.529Z,0.33
2017-12-10T20:14:47.343Z,0.01
2017-12-10T20:17:15.042Z,-0.39
2017-12-10T20:19:42.814Z,0.18
2017-12-10T20:22:10.620Z,0.33
2017-12-10T20:24:38.308Z,-0.05
2017-12-10T20:27:05.870Z,-0.03
2017-12-10T20:29:34.324Z,0.10
2017-12-10T20:32:01.953Z,0.25
2017-12-10T20:34:29.697Z,0.31
2017-12-10T20:36:57.300Z,0.52
2017-12-10T20:39:24.942Z,0.34
2017-12-10T20:41:52.550Z,-0.09
2017-12-10T20:44:20.331Z,0.05
2017-12-10T20:46:47.967Z,-0.23
2017-12-10T20:49:15.635Z,-0.11
2017-12-10T20:51:44.182Z,0.18
2017-12-10T20:54:11.881Z,0.02
2017-12-10T20:56:39.444Z,0.42
2017-12-10T20:59:06.980Z,0.28
2017-12-10T21:01:34.546Z,0.62
2017-12-10T21:04:02.415Z,0.27
2017-12-10T21:06:29.970Z,0.64
2017-12-10T21:08:57.574Z,0.04
2017-12-10T21:11:25.163Z,0.41
2017-12-10T21:13:52.726Z,0.07
2017-12-10T21:16:20.336Z,0.02
2017-12-10T21:18:49.634Z,0.32
2017-12-10T21:21:17.398Z,0.33
2017-12-10T21:23:44.984Z,0.20
2017-12-10T21:26:12.799Z,-0.01
2017-12-10T21:28:40.596Z,0.57
2017-12-10T21:31:08.756Z,0.54
2017-12-10T21:33:36.327Z,0.19
2017-12-10T21:36:03.904Z,0.23
2017-12-10T21:38:31.568Z,0.24
2017-12-10T21:40:59.123Z,0.55
2017-12-10T21:43:26.686Z,0.24
2017-12-10T21:45:54.307Z,0.17
2017-12-10T21:48:21.873Z,0.03
2017-12-10T21:50:49.455Z,0.15
2017-12-10T21:53:17.070Z,-0.19
2017-12-10T21:55:45.494Z,0.11
2017-12-10T21:58:13.122Z,0.24
2017-12-10T22:00:40.765Z,0.29
2017-12-10T22:03:08.314Z,0.16
2017-12-10T22:05:36.456Z,0.07
2017-12-10T22:08:04.094Z,0.09
2017-12-10T22:10:31.876Z,-0.16
2017-12-10T22:12:59.465Z,0.55
2017-12-10T22:15:27.099Z,0.09
2017-12-10T22:17:54.900Z,0.57
2017-12-10T22:20:22.606Z,0.31
2017-12-10T22:22:50.178Z,-0.03
2017-12-10T22:25:17.713Z,0.14
2017-12-10T22:27:45.251Z,0.18
2017-12-10T22:30:12.887Z,0.10
2017-12-10T22:32:40.480Z,0.56
2017-12-10T22:35:08.381Z,-0.27
2017-12-10T22:37:36.721Z,0.30
2017-12-10T22:40:04.283Z,0.40
2017-12-10T22:42:32.168Z,0.03
2017-12-10T22:44:59.808Z,-0.26
2017-12-10T22:47:27.334Z,0.04
2017-12-10T22:49:54.858Z,-0.09
2017-12-10T22:52:22.481Z,-0.01
2017-12-10T22:54:50.274Z,0.09
2017-12-10T22:57:17.816Z,0.03
2017-12-10T22:59:45.378Z,0.04
2017-12-10T23:02:13.068Z,-0.08
2017-12-10T23:04:40.588Z,0.09
2017-12-10T23:07:08.462Z,0.50
2017-12-10T23:09:36.020Z,0.59
2017-12-10T23:12:03.827Z,0.37
2017-12-10T23:14:42.210Z,0.41
2017-12-10T23:17:09.745Z,-0.14
2017-12-10T23:19:37.281Z,0.53
2017-12-10T23:22:04.845Z,-0.29
2017-12-10T23:24:32.447Z,-0.39
2017-12-10T23:26:59.975Z,-0.49
2017-12-10T23:29:27.555Z,-0.59
2017-12-10T23:31:55.210Z,-0.57
2017-12-10T23:34:22.763Z,-0.15
2017-12-10T23:36:50.566Z,-0.39
2017-12-10T23:39:18.125Z,-0.94
2017-12-10T23:41:45.674Z,-0.59
2017-12-10T23:44:13.228Z,-0.93
2017-12-10T23:46:40.877Z,-0.33
2017-12-10T23:49:08.425Z,-0.62
2017-12-10T23:51:35.944Z,-0.23
2017-12-10T23:54:03.759Z,-0.07
2017-12-10T23:56:31.290Z,-0.28
2017-12-10T23:58:58.837Z,-0.56
